Time,TemperatureF,DewpointF,PressureIn,WindDirection,WindDirectionDegrees,WindSpeedMPH,WindSpeedGustMPH,Humidity,HourlyPrecipIn,Conditions,Clouds,dailyrainin,SolarRadiationWatts/m^2,SoftwareType,DateUTC
2013-05-29 00:00:00,50.8,18.9,29.88,NNW,338,3.0,7.0,28,0.00,,,0.00,0,WeatherCatV1.15B25,2013-05-29 06:00:00,
2013-05-29 00:05:00,50.8,18.9,29.87,NW,315,7.0,11.0,28,0.00,,,0.00,0,WeatherCatV1.15B25,2013-05-29 06:05:00,
2013-05-29 00:10:00,50.8,18.9,29.87,NW,315,7.0,11.0,28,0.00,,,0.00,0,WeatherCatV1.15B25,2013-05-29 06:10:00,
2013-05-29 00:15:00,50.8,18.9,29.87,NW,315,7.0,11.0,28,0.00,,,0.00,0,WeatherCatV1.15B25,2013-05-29 06:15:00,
2013-05-29 00:20:00,50.5,18.6,29.86,NW,315,7.0,11.0,28,0.00,,,0.00,0,WeatherCatV1.15B25,2013-05-29 06:20:00,
2013-05-29 00:25:00,50.5,18.6,29.86,NW,315,7.0,11.0,28,0.00,,,0.00,0,WeatherCatV1.15B25,2013-05-29 06:25:00,
2013-05-29 00:30:00,50.5,18.6,29.86,NW,315,7.0,11.0,28,0.00,,,0.00,0,WeatherCatV1.15B25,2013-05-29 06:30:00,
2013-05-29 00:35:00,50.1,18.3,29.87,NW,315,8.0,13.0,28,0.00,,,0.00,0,WeatherCatV1.15B25,2013-05-29 06:35:00,
2013-05-29 00:40:00,50.1,18.3,29.87,NW,315,8.0,13.0,28,0.00,,,0.00,0,WeatherCatV1.15B25,2013-05-29 06:40:00,
2013-05-29 00:45:00,50.1,18.3,29.87,NW,315,8.0,13.0,28,0.00,,,0.00,0,WeatherCatV1.15B25,2013-05-29 06:45:00,
2013-05-29 00:50:00,51.9,19.8,29.87,West,270,11.0,26.0,28,0.00,,,0.00,0,WeatherCatV1.15B25,2013-05-29 06:50:00,
2013-05-29 00:55:00,51.9,19.8,29.87,West,270,11.0,26.0,28,0.00,,,0.00,0,WeatherCatV1.15B25,2013-05-29 06:55:00,
2013-05-29 01:00:00,51.9,19.8,29.87,West,270,11.0,26.0,28,0.00,,,0.00,0,WeatherCatV1.15B25,2013-05-29 07:00:00,
2013-05-29 01:05:00,50.8,23.5,29.87,West,270,13.0,27.0,34,0.00,,,0.00,0,WeatherCatV1.15B25,2013-05-29 07:05:00,
2013-05-29 01:10:00,50.8,23.5,29.87,West,270,13.0,27.0,34,0.00,,,0.00,0,WeatherCatV1.15B25,2013-05-29 07:10:00,
2013-05-29 01:15:00,50.8,23.5,29.87,West,270,13.0,27.0,34,0.00,,,0.00,0,WeatherCatV1.15B25,2013-05-29 07:15:00,
2013-05-29 01:20:00,50.1,25.5,29.86,West,270,17.0,32.0,38,0.00,,,0.00,0,WeatherCatV1.15B25,2013-05-29 07:20:00,
2013-05-29 01:25:00,50.1,25.5,29.86,West,270,17.0,32.0,38,0.00,,,0.00,0,WeatherCatV1.15B25,2013-05-29 07:25:00,
2013-05-29 01:30:00,50.1,25.5,29.86,West,270,17.0,32.0,38,0.00,,,0.00,0,WeatherCatV1.15B25,2013-05-29 07:30:00,
2013-05-29 01:35:00,49.4,26.7,29.86,NW,315,16.0,31.0,41,0.00,,,0.00,0,WeatherCatV1.15B25,2013-05-29 07:35:00,
2013-05-29 01:40:00,49.4,26.7,29.86,NW,315,16.0,31.0,41,0.00,,,0.00,0,WeatherCatV1.15B25,2013-05-29 07:40:00,
2013-05-29 01:45:00,49.4,26.7,29.86,NW,315,16.0,31.0,41,0.00,,,0.00,0,WeatherCatV1.15B25,2013-05-29 07:45:00,
2013-05-29 01:50:00,48.8,27.3,29.85,West,270,17.0,30.0,43,0.00,,,0.00,0,WeatherCatV1.15B25,2013-05-29 07:50:00,
2013-05-29 01:55:00,48.8,27.3,29.85,West,270,17.0,30.0,43,0.00,,,0.00,0,WeatherCatV1.15B25,2013-05-29 07:55:00,
2013-05-29 02:00:00,48.3,27.4,29.86,West,270,15.0,29.0,44,0.00,,,0.00,0,WeatherCatV1.15B25,2013-05-29 08:00:00,
2013-05-29 02:05:00,48.3,27.4,29.86,West,270,15.0,29.0,44,0.00,,,0.00,0,WeatherCatV1.15B25,2013-05-29 08:05:00,
2013-05-29 02:10:00,48.3,27.4,29.86,West,270,15.0,29.0,44,0.00,,,0.00,0,WeatherCatV1.15B25,2013-05-29 08:10:00,
2013-05-29 02:15:00,48.0,28.2,29.87,WNW,292,12.0,26.0,46,0.00,,,0.00,0,WeatherCatV1.15B25,2013-05-29 08:15:00,
2013-05-29 02:20:00,48.0,28.2,29.87,WNW,292,12.0,26.0,46,0.00,,,0.00,0,WeatherCatV1.15B25,2013-05-29 08:20:00,
2013-05-29 02:25:00,48.0,28.2,29.87,WNW,292,12.0,26.0,46,0.00,,,0.00,0,WeatherCatV1.15B25,2013-05-29 08:25:00,
2013-05-29 02:30:00,47.4,28.7,29.86,WNW,292,12.0,28.0,48,0.00,,,0.00,0,WeatherCatV1.15B25,2013-05-29 08:30:00,
2013-05-29 02:35:00,47.4,28.7,29.86,WNW,292,12.0,28.0,48,0.00,,,0.00,0,WeatherCatV1.15B25,2013-05-29 08:35:00,
2013-05-29 02:40:00,47.4,28.7,29.86,WNW,292,12.0,28.0,48,0.00,,,0.00,0,WeatherCatV1.15B25,2013-05-29 08:40:00,
2013-05-29 02:45:00,47.3,28.6,29.86,WNW,292,11.0,26.0,48,0.00,,,0.00,0,WeatherCatV1.15B25,2013-05-29 08:45:00,
2013-05-29 02:50:00,47.3,28.6,29.86,WNW,292,11.0,26.0,48,0.00,,,0.00,0,WeatherCatV1.15B25,2013-05-29 08:50:00,
2013-05-29 02:55:00,47.3,28.6,29.86,WNW,292,11.0,26.0,48,0.00,,,0.00,0,WeatherCatV1.15B25,2013-05-29 08:55:00,
2013-05-29 03:00:00,47.3,28.6,29.86,WNW,292,11.0,26.0,48,0.00,,,0.00,0,WeatherCatV1.15B25,2013-05-29 09:00:00,
2013-05-29 03:05:00,47.3,29.1,29.88,West,270,13.0,27.0,49,0.00,,,0.00,0,WeatherCatV1.15B25,2013-05-29 09:05:00,
2013-05-29 03:10:00,47.3,29.1,29.88,West,270,13.0,27.0,49,0.00,,,0.00,0,WeatherCatV1.15B25,2013-05-29 09:10:00,
2013-05-29 03:15:00,47.3,29.1,29.88,West,270,13.0,27.0,49,0.00,,,0.00,0,WeatherCatV1.15B25,2013-05-29 09:15:00,
2013-05-29 03:20:00,46.8,29.6,29.88,West,270,11.0,22.0,51,0.00,,,0.00,0,WeatherCatV1.15B25,2013-05-29 09:20:00,
2013-05-29 03:25:00,46.8,29.6,29.88,West,270,11.0,22.0,51,0.00,,,0.00,0,WeatherCatV1.15B25,2013-05-29 09:25:00,
2013-05-29 03:30:00,46.8,29.6,29.88,West,270,11.0,22.0,51,0.00,,,0.00,0,WeatherCatV1.15B25,2013-05-29 09:30:00,
2013-05-29 03:35:00,46.2,30.0,29.88,West,270,6.0,16.0,53,0.00,,,0.00,0,WeatherCatV1.15B25,2013-05-29 09:35:00,
2013-05-29 03:40:00,46.2,30.0,29.88,West,270,6.0,16.0,53,0.00,,,0.00,0,WeatherCatV1.15B25,2013-05-29 09:40:00,
2013-05-29 03:45:00,46.2,30.0,29.88,West,270,6.0,16.0,53,0.00,,,0.00,0,WeatherCatV1.15B25,2013-05-29 09:45:00,
2013-05-29 03:50:00,46.1,30.4,29.88,WSW,248,9.0,21.0,54,0.00,,,0.00,0,WeatherCatV1.15B25,2013-05-29 09:50:00,
2013-05-29 03:55:00,46.1,30.4,29.88,WSW,248,9.0,21.0,54,0.00,,,0.00,0,WeatherCatV1.15B25,2013-05-29 09:55:00,
2013-05-29 04:00:00,46.1,30.4,29.88,WSW,248,9.0,21.0,54,0.00,,,0.00,0,WeatherCatV1.15B25,2013-05-29 10:00:00,
2013-05-29 04:05:00,46.1,30.8,29.88,West,270,10.0,20.0,55,0.00,,,0.00,0,WeatherCatV1.15B25,2013-05-29 10:05:00,
2013-05-29 04:10:00,46.1,30.8,29.88,West,270,10.0,20.0,55,0.00,,,0.00,0,WeatherCatV1.15B25,2013-05-29 10:10:00,
2013-05-29 04:15:00,46.1,30.8,29.88,West,270,10.0,20.0,55,0.00,,,0.00,0,WeatherCatV1.15B25,2013-05-29 10:15:00,
2013-05-29 04:20:00,45.5,32.4,29.89,WNW,292,9.0,20.0,60,0.00,,,0.00,0,WeatherCatV1.15B25,2013-05-29 10:20:00,
2013-05-29 04:25:00,45.5,32.4,29.89,WNW,292,9.0,20.0,60,0.00,,,0.00,0,WeatherCatV1.15B25,2013-05-29 10:25:00,
2013-05-29 04:30:00,45.5,32.4,29.89,WNW,292,9.0,20.0,60,0.00,,,0.00,0,WeatherCatV1.15B25,2013-05-29 10:30:00,
2013-05-29 04:35:00,44.1,33.1,29.90,SW,225,8.0,19.0,65,0.00,,,0.00,0,WeatherCatV1.15B25,2013-05-29 10:35:00,
2013-05-29 04:40:00,44.1,33.1,29.90,SW,225,8.0,19.0,65,0.00,,,0.00,0,WeatherCatV1.15B25,2013-05-29 10:40:00,
2013-05-29 04:45:00,44.1,33.1,29.90,SW,225,8.0,19.0,65,0.00,,,0.00,0,WeatherCatV1.15B25,2013-05-29 10:45:00,
2013-05-29 04:50:00,42.2,34.2,29.90,NW,315,7.0,17.0,73,0.00,,,0.00,0,WeatherCatV1.15B25,2013-05-29 10:50:00,
2013-05-29 04:55:00,42.2,34.2,29.90,NW,315,7.0,17.0,73,0.00,,,0.00,0,WeatherCatV1.15B25,2013-05-29 10:55:00,
2013-05-29 05:07:00,42.2,34.2,29.90,NW,315,7.0,17.0,73,0.00,,,0.00,0,WeatherCatV1.15B25,2013-05-29 11:07:00,
2013-05-29 05:12:00,39.9,33.3,29.90,NW,320,3.0,12.0,77,0.00,,,0.01,0,WeatherCatV1.15B25,2013-05-29 11:12:00,
2013-05-29 05:17:00,39.6,33.3,29.90,NW,308,10.0,14.0,78,0.00,,,0.01,0,WeatherCatV1.15B25,2013-05-29 11:17:00,
2013-05-29 05:22:00,39.5,32.6,29.90,NW,312,11.0,12.0,76,0.00,,,0.01,0,WeatherCatV1.15B25,2013-05-29 11:22:00,
2013-05-29 05:27:00,39.5,31.9,29.90,WNW,302,8.0,12.0,74,0.00,,,0.01,0,WeatherCatV1.15B25,2013-05-29 11:27:00,
2013-05-29 05:32:00,39.8,31.5,29.88,NW,320,7.0,16.0,72,0.00,,,0.01,0,WeatherCatV1.15B25,2013-05-29 11:32:00,
2013-05-29 05:40:00,40.2,30.1,29.88,WNW,292,13.0,16.0,67,0.00,,,0.01,0,WeatherCatV1.15B25,2013-05-29 11:40:00,
2013-05-29 05:45:00,40.8,30.0,29.87,WNW,302,7.0,10.0,65,0.00,,,0.01,0,WeatherCatV1.15B25,2013-05-29 11:45:00,
2013-05-29 05:50:00,40.9,31.2,29.87,NW,305,8.0,14.0,68,0.00,,,0.01,5,WeatherCatV1.15B25,2013-05-29 11:50:00,
2013-05-29 05:55:00,40.8,30.7,29.87,NW,304,6.0,12.0,67,0.00,,,0.01,7,WeatherCatV1.15B25,2013-05-29 11:55:00,
2013-05-29 06:00:00,40.9,28.9,29.87,NNW,330,10.0,11.0,62,0.00,,,0.01,7,WeatherCatV1.15B25,2013-05-29 12:00:00,
2013-05-29 06:03:00,41.3,28.5,29.87,NW,311,3.0,10.0,60,0.00,,,0.01,11,WeatherCatV1.15B25,2013-05-29 12:03:00,
2013-05-29 06:08:00,41.8,28.5,29.87,NW,308,7.0,11.0,59,0.00,,,0.01,12,WeatherCatV1.15B25,2013-05-29 12:08:00,
2013-05-29 06:13:00,42.2,27.6,29.87,NNW,335,12.0,13.0,56,0.00,,,0.01,25,WeatherCatV1.15B25,2013-05-29 12:13:00,
2013-05-29 06:19:00,42.5,28.4,29.86,West,271,2.0,13.0,57,0.00,,,0.01,25,WeatherCatV1.15B25,2013-05-29 12:19:00,
2013-05-29 06:24:00,42.5,28.8,29.86,WNW,285,7.0,8.0,58,0.00,,,0.01,28,WeatherCatV1.15B25,2013-05-29 12:24:00,
2013-05-29 06:29:00,42.5,28.8,29.86,WNW,287,0.0,2.0,58,0.00,,,0.01,25,WeatherCatV1.15B25,2013-05-29 12:29:00,
2013-05-29 06:34:00,42.5,28.4,29.87,WNW,285,2.0,6.0,57,0.00,,,0.01,28,WeatherCatV1.15B25,2013-05-29 12:34:00,
2013-05-29 06:39:00,42.6,28.9,29.87,WNW,294,4.0,7.0,58,0.00,,,0.01,25,WeatherCatV1.15B25,2013-05-29 12:39:00,
2013-05-29 06:44:00,42.5,29.2,29.87,WNW,301,6.0,6.0,59,0.00,,,0.01,25,WeatherCatV1.15B25,2013-05-29 12:44:00,
2013-05-29 06:49:00,42.3,29.0,29.87,WNW,289,1.0,6.0,59,0.00,,,0.01,25,WeatherCatV1.15B25,2013-05-29 12:49:00,
2013-05-29 06:54:00,42.3,29.0,29.87,WNW,291,4.0,8.0,59,0.00,,,0.01,25,WeatherCatV1.15B25,2013-05-29 12:54:00,
2013-05-29 06:59:00,42.5,29.6,29.87,WNW,291,3.0,3.0,60,0.00,,,0.01,44,WeatherCatV1.15B25,2013-05-29 12:59:00,
2013-05-29 07:04:00,42.8,29.1,29.87,WNW,292,4.0,7.0,58,0.00,,,0.01,74,WeatherCatV1.15B25,2013-05-29 13:04:00,
2013-05-29 07:09:00,43.2,29.0,29.87,WSW,254,7.0,8.0,57,0.00,,,0.01,88,WeatherCatV1.15B25,2013-05-29 13:09:00,
2013-05-29 07:14:00,43.6,29.8,29.87,WSW,256,3.0,6.0,58,0.00,,,0.01,67,WeatherCatV1.15B25,2013-05-29 13:14:00,
2013-05-29 07:19:00,43.9,29.2,29.88,SW,224,1.0,4.0,56,0.00,,,0.01,102,WeatherCatV1.15B25,2013-05-29 13:19:00,
2013-05-29 07:24:00,44.5,29.4,29.88,SW,224,3.0,6.0,55,0.00,,,0.01,310,WeatherCatV1.15B25,2013-05-29 13:24:00,
2013-05-29 07:29:00,45.4,27.9,29.88,West,272,9.0,12.0,50,0.00,,,0.01,320,WeatherCatV1.15B25,2013-05-29 13:29:00,
2013-05-29 07:34:00,45.8,27.7,29.88,West,267,6.0,13.0,49,0.00,,,0.01,130,WeatherCatV1.15B25,2013-05-29 13:34:00,
2013-05-29 07:39:00,46.7,28.1,29.88,SW,230,6.0,8.0,48,0.00,,,0.01,466,WeatherCatV1.15B25,2013-05-29 13:39:00,
2013-05-29 07:44:00,47.3,27.6,29.88,WSW,258,6.0,12.0,46,0.00,,,0.01,289,WeatherCatV1.15B25,2013-05-29 13:44:00,
2013-05-29 07:49:00,47.3,28.1,29.88,SW,224,2.0,7.0,47,0.00,,,0.01,208,WeatherCatV1.15B25,2013-05-29 13:49:00,
2013-05-29 07:54:00,47.1,27.9,29.88,SW,216,2.0,8.0,47,0.00,,,0.01,187,WeatherCatV1.15B25,2013-05-29 13:54:00,
2013-05-29 07:59:00,47.0,27.8,29.88,South,181,2.0,12.0,47,0.00,,,0.01,259,WeatherCatV1.15B25,2013-05-29 13:59:00,
2013-05-29 08:04:00,47.6,28.9,29.88,West,264,10.0,14.0,48,0.00,,,0.01,577,WeatherCatV1.15B25,2013-05-29 14:04:00,
2013-05-29 08:09:00,48.2,28.9,29.88,SW,233,11.0,18.0,47,0.00,,,0.01,375,WeatherCatV1.15B25,2013-05-29 14:09:00,
2013-05-29 08:14:00,47.7,29.0,29.88,WSW,258,9.0,18.0,48,0.00,,,0.01,516,WeatherCatV1.15B25,2013-05-29 14:14:00,
2013-05-29 08:19:00,47.6,28.9,29.88,SW,215,1.0,14.0,48,0.00,,,0.01,500,WeatherCatV1.15B25,2013-05-29 14:19:00,
2013-05-29 08:24:00,47.4,28.2,29.88,West,267,14.0,18.0,47,0.00,,,0.01,514,WeatherCatV1.15B25,2013-05-29 14:24:00,
2013-05-29 08:29:00,47.3,28.1,29.88,WSW,258,7.0,20.0,47,0.00,,,0.01,530,WeatherCatV1.15B25,2013-05-29 14:29:00,
2013-05-29 08:34:00,47.4,28.2,29.87,WSW,254,12.0,17.0,47,0.00,,,0.01,545,WeatherCatV1.15B25,2013-05-29 14:34:00,
2013-05-29 08:39:00,47.9,27.6,29.87,West,280,10.0,18.0,45,0.00,,,0.01,568,WeatherCatV1.15B25,2013-05-29 14:39:00,
2013-05-29 08:44:00,47.9,27.0,29.87,NW,304,15.0,19.0,44,0.00,,,0.01,596,WeatherCatV1.15B25,2013-05-29 14:44:00,
2013-05-29 08:49:00,48.2,27.9,29.88,SSW,199,16.0,18.0,45,0.00,,,0.01,621,WeatherCatV1.15B25,2013-05-29 14:49:00,
2013-05-29 08:54:00,48.0,26.6,29.88,WSW,239,12.0,21.0,43,0.00,,,0.01,644,WeatherCatV1.15B25,2013-05-29 14:54:00,
2013-05-29 08:59:00,48.2,26.8,29.88,SW,219,7.0,22.0,43,0.00,,,0.01,651,WeatherCatV1.15B25,2013-05-29 14:59:00,
2013-05-29 09:04:00,48.6,27.1,29.88,West,281,6.0,22.0,43,0.00,,,0.01,699,WeatherCatV1.15B25,2013-05-29 15:04:00,
2013-05-29 09:09:00,48.8,26.2,29.88,West,260,20.0,24.0,41,0.00,,,0.01,697,WeatherCatV1.15B25,2013-05-29 15:09:00,
2013-05-29 09:14:00,48.8,26.7,29.88,WNW,287,13.0,20.0,42,0.00,,,0.01,714,WeatherCatV1.15B25,2013-05-29 15:14:00,
2013-05-29 09:19:00,48.9,25.7,29.88,WSW,247,5.0,24.0,40,0.00,,,0.01,713,WeatherCatV1.15B25,2013-05-29 15:19:00,
2013-05-29 09:24:00,49.1,27.0,29.88,SW,230,7.0,16.0,42,0.00,,,0.01,808,WeatherCatV1.15B25,2013-05-29 15:24:00,
2013-05-29 09:29:00,49.4,26.7,29.88,NW,308,7.0,19.0,41,0.00,,,0.01,815,WeatherCatV1.15B25,2013-05-29 15:29:00,
2013-05-29 09:34:00,49.6,24.4,29.88,WSW,258,11.0,24.0,37,0.00,,,0.01,788,WeatherCatV1.15B25,2013-05-29 15:34:00,
2013-05-29 09:39:00,49.6,25.0,29.88,West,277,10.0,16.0,38,0.00,,,0.01,860,WeatherCatV1.15B25,2013-05-29 15:39:00,
2013-05-29 09:44:00,49.9,25.9,29.88,West,261,19.0,21.0,39,0.00,,,0.01,911,WeatherCatV1.15B25,2013-05-29 15:44:00,
2013-05-29 09:49:00,50.4,25.8,29.87,NW,309,10.0,12.0,38,0.00,,,0.01,904,WeatherCatV1.15B25,2013-05-29 15:49:00,
2013-05-29 09:54:00,49.2,25.9,29.87,West,275,11.0,18.0,40,0.00,,,0.01,385,WeatherCatV1.15B25,2013-05-29 15:54:00,
2013-05-29 09:59:00,49.1,25.2,29.87,SW,217,20.0,20.0,39,0.00,,,0.01,871,WeatherCatV1.15B25,2013-05-29 15:59:00,
2013-05-29 10:04:00,49.5,26.2,29.87,WSW,246,19.0,20.0,40,0.00,,,0.01,848,WeatherCatV1.15B25,2013-05-29 16:04:00,
2013-05-29 10:09:00,49.5,24.3,29.87,West,264,19.0,22.0,37,0.00,,,0.01,954,WeatherCatV1.15B25,2013-05-29 16:09:00,
2013-05-29 10:14:00,49.5,25.0,29.87,SW,219,15.0,21.0,38,0.00,,,0.01,920,WeatherCatV1.15B25,2013-05-29 16:14:00,
2013-05-29 10:19:00,50.2,24.3,29.86,WSW,247,10.0,19.0,36,0.00,,,0.01,920,WeatherCatV1.15B25,2013-05-29 16:19:00,
2013-05-29 10:24:00,51.1,25.1,29.86,WSW,256,10.0,27.0,36,0.00,,,0.01,926,WeatherCatV1.15B25,2013-05-29 16:24:00,
2013-05-29 10:29:00,51.4,26.7,29.86,NW,322,15.0,21.0,38,0.00,,,0.01,968,WeatherCatV1.15B25,2013-05-29 16:29:00,
2013-05-29 10:34:00,51.9,26.5,29.86,WSW,243,17.0,21.0,37,0.00,,,0.01,968,WeatherCatV1.15B25,2013-05-29 16:34:00,
2013-05-29 10:39:00,52.3,28.1,29.86,WNW,285,16.0,19.0,39,0.00,,,0.01,999,WeatherCatV1.15B25,2013-05-29 16:39:00,
2013-05-29 10:44:00,52.0,24.5,29.86,NNW,333,17.0,28.0,34,0.00,,,0.01,871,WeatherCatV1.15B25,2013-05-29 16:44:00,
2013-05-29 10:49:00,51.1,24.4,29.87,West,281,17.0,28.0,35,0.00,,,0.01,964,WeatherCatV1.15B25,2013-05-29 16:49:00,
2013-05-29 10:54:00,51.6,26.8,29.87,West,281,17.0,22.0,38,0.00,,,0.01,1110,WeatherCatV1.15B25,2013-05-29 16:54:00,
2013-05-29 10:59:00,50.8,28.5,29.87,NNW,344,15.0,26.0,42,0.00,,,0.01,431,WeatherCatV1.15B25,2013-05-29 16:59:00,
2013-05-29 11:04:00,48.8,28.4,29.87,NW,316,9.0,28.0,45,0.00,,,0.01,366,WeatherCatV1.15B25,2013-05-29 17:04:00,
2013-05-29 11:09:00,47.6,28.4,29.87,NNW,339,13.0,18.0,47,0.00,,,0.01,257,WeatherCatV1.15B25,2013-05-29 17:09:00,
2013-05-29 11:14:00,45.8,31.4,29.87,North,0,25.0,26.0,57,0.00,,,0.01,280,WeatherCatV1.15B25,2013-05-29 17:14:00,
2013-05-29 11:19:00,44.5,32.3,29.88,North,4,8.0,11.0,62,0.00,,,0.01,472,WeatherCatV1.15B25,2013-05-29 17:19:00,
2013-05-29 11:24:00,45.8,32.3,29.88,North,353,12.0,16.0,59,0.00,,,0.01,1087,WeatherCatV1.15B25,2013-05-29 17:24:00,
2013-05-29 11:29:00,49.1,26.4,29.88,West,261,18.0,22.0,41,0.00,,,0.01,1068,WeatherCatV1.15B25,2013-05-29 17:29:00,
2013-05-29 11:34:00,50.8,26.7,29.87,SW,226,13.0,21.0,39,0.00,,,0.01,1050,WeatherCatV1.15B25,2013-05-29 17:34:00,
2013-05-29 11:39:00,52.3,28.7,29.87,WNW,282,11.0,17.0,40,0.00,,,0.01,1035,WeatherCatV1.15B25,2013-05-29 17:39:00,
2013-05-29 11:44:00,52.9,26.0,29.87,NW,315,6.0,19.0,35,0.00,,,0.01,1005,WeatherCatV1.15B25,2013-05-29 17:44:00,
2013-05-29 11:49:00,52.8,27.3,29.87,West,263,13.0,20.0,37,0.00,,,0.01,1010,WeatherCatV1.15B25,2013-05-29 17:49:00,
2013-05-29 11:54:00,52.6,26.4,29.87,WNW,292,19.0,21.0,36,0.00,,,0.01,1006,WeatherCatV1.15B25,2013-05-29 17:54:00,
2013-05-29 11:59:00,53.5,28.5,29.87,WNW,289,13.0,24.0,38,0.00,,,0.01,1056,WeatherCatV1.15B25,2013-05-29 17:59:00,
2013-05-29 12:04:00,54.8,27.7,29.87,NW,326,19.0,20.0,35,0.00,,,0.01,1098,WeatherCatV1.15B25,2013-05-29 18:04:00,
2013-05-29 12:09:00,54.8,27.0,29.87,NW,322,10.0,17.0,34,0.00,,,0.01,1001,WeatherCatV1.15B25,2013-05-29 18:09:00,
2013-05-29 12:14:00,53.6,27.3,29.87,WNW,302,10.0,18.0,36,0.00,,,0.01,417,WeatherCatV1.15B25,2013-05-29 18:14:00,
2013-05-29 12:19:00,53.9,27.6,29.87,West,267,14.0,17.0,36,0.00,,,0.01,790,WeatherCatV1.15B25,2013-05-29 18:19:00,
2013-05-29 12:24:00,54.7,26.9,29.87,West,265,10.0,20.0,34,0.00,,,0.01,1105,WeatherCatV1.15B25,2013-05-29 18:24:00,
2013-05-29 12:29:00,55.1,27.2,29.87,West,278,10.0,14.0,34,0.00,,,0.01,1126,WeatherCatV1.15B25,2013-05-29 18:29:00,
2013-05-29 12:34:00,55.0,25.7,29.87,NW,322,19.0,19.0,32,0.00,,,0.01,1126,WeatherCatV1.15B25,2013-05-29 18:34:00,
2013-05-29 12:39:00,53.9,26.2,29.87,North,350,14.0,19.0,34,0.00,,,0.01,1126,WeatherCatV1.15B25,2013-05-29 18:39:00,
2013-05-29 12:44:00,51.9,30.7,29.87,North,0,22.0,22.0,44,0.00,,,0.01,301,WeatherCatV1.15B25,2013-05-29 18:44:00,
2013-05-29 12:49:00,49.5,30.1,29.87,NW,323,12.0,22.0,47,0.00,,,0.01,259,WeatherCatV1.15B25,2013-05-29 18:49:00,
2013-05-29 12:54:00,49.6,30.7,29.87,North,0,7.0,19.0,48,0.00,,,0.01,1086,WeatherCatV1.15B25,2013-05-29 18:54:00,
2013-05-29 12:59:00,51.3,29.6,29.86,North,353,8.0,14.0,43,0.00,,,0.01,966,WeatherCatV1.15B25,2013-05-29 18:59:00,
2013-05-29 13:04:00,53.3,26.4,29.86,West,275,8.0,17.0,35,0.00,,,0.01,1103,WeatherCatV1.15B25,2013-05-29 19:04:00,
2013-05-29 13:09:00,54.8,23.2,29.86,SSW,198,5.0,22.0,29,0.00,,,0.01,1167,WeatherCatV1.15B25,2013-05-29 19:09:00,
2013-05-29 13:14:00,55.6,23.0,29.86,WSW,244,10.0,20.0,28,0.00,,,0.01,1008,WeatherCatV1.15B25,2013-05-29 19:14:00,
2013-05-29 13:19:00,56.2,23.5,29.86,West,270,8.0,12.0,28,0.00,,,0.01,486,WeatherCatV1.15B25,2013-05-29 19:19:00,
2013-05-29 13:24:00,55.9,23.3,29.86,West,274,7.0,30.0,28,0.00,,,0.01,985,WeatherCatV1.15B25,2013-05-29 19:24:00,
2013-05-29 13:29:00,56.6,23.0,29.85,SW,233,14.0,19.0,27,0.00,,,0.01,1056,WeatherCatV1.15B25,2013-05-29 19:29:00,
2013-05-29 13:34:00,56.9,23.3,29.85,NW,306,14.0,17.0,27,0.00,,,0.01,1042,WeatherCatV1.15B25,2013-05-29 19:34:00,
2013-05-29 13:39:00,57.8,24.0,29.85,SW,216,13.0,24.0,27,0.00,,,0.01,1246,WeatherCatV1.15B25,2013-05-29 19:39:00,
2013-05-29 13:44:00,56.2,20.9,29.85,SW,217,8.0,24.0,25,0.00,,,0.01,267,WeatherCatV1.15B25,2013-05-29 19:44:00,
2013-05-29 13:49:00,55.0,21.6,29.85,NW,309,17.0,24.0,27,0.00,,,0.01,280,WeatherCatV1.15B25,2013-05-29 19:49:00,
2013-05-29 13:54:00,54.2,22.6,29.85,West,264,18.0,22.0,29,0.00,,,0.01,317,WeatherCatV1.15B25,2013-05-29 19:54:00,
2013-05-29 13:59:00,54.8,22.3,29.85,NNE,23,8.0,19.0,28,0.00,,,0.01,1022,WeatherCatV1.15B25,2013-05-29 19:59:00,
2013-05-29 14:04:00,55.6,23.0,29.85,NNW,337,7.0,19.0,28,0.00,,,0.01,672,WeatherCatV1.15B25,2013-05-29 20:04:00,
2013-05-29 14:09:00,55.9,22.4,29.85,West,265,20.0,30.0,27,0.00,,,0.01,1147,WeatherCatV1.15B25,2013-05-29 20:09:00,
2013-05-29 14:14:00,55.4,22.8,29.85,WSW,244,7.0,21.0,28,0.00,,,0.01,1054,WeatherCatV1.15B25,2013-05-29 20:14:00,
2013-05-29 14:19:00,55.4,22.0,29.85,WSW,256,20.0,22.0,27,0.00,,,0.01,304,WeatherCatV1.15B25,2013-05-29 20:19:00,
2013-05-29 14:24:00,54.8,24.0,29.85,North,0,15.0,20.0,30,0.00,,,0.01,389,WeatherCatV1.15B25,2013-05-29 20:24:00,
2013-05-29 14:29:00,54.1,24.9,29.86,NNW,342,6.0,19.0,32,0.00,,,0.01,333,WeatherCatV1.15B25,2013-05-29 20:29:00,
2013-05-29 14:34:00,52.3,28.7,29.86,NW,322,11.0,26.0,40,0.00,,,0.01,333,WeatherCatV1.15B25,2013-05-29 20:34:00,
2013-05-29 14:39:00,51.9,30.1,29.86,SW,236,8.0,13.0,43,0.00,,,0.01,1029,WeatherCatV1.15B25,2013-05-29 20:39:00,
2013-05-29 14:44:00,53.1,27.5,29.86,West,275,2.0,9.0,37,0.00,,,0.01,882,WeatherCatV1.15B25,2013-05-29 20:44:00,
2013-05-29 14:49:00,54.4,25.9,29.86,WNW,299,8.0,18.0,33,0.00,,,0.01,959,WeatherCatV1.15B25,2013-05-29 20:49:00,
2013-05-29 14:54:00,55.1,26.5,29.86,North,353,9.0,16.0,33,0.00,,,0.01,1001,WeatherCatV1.15B25,2013-05-29 20:54:00,
2013-05-29 14:59:00,55.9,27.9,29.85,NNE,14,5.0,11.0,34,0.00,,,0.01,966,WeatherCatV1.15B25,2013-05-29 20:59:00,
2013-05-29 15:04:00,56.5,22.9,29.85,WNW,299,10.0,13.0,27,0.00,,,0.01,952,WeatherCatV1.15B25,2013-05-29 21:04:00,
2013-05-29 15:09:00,56.5,22.9,29.85,NW,318,12.0,22.0,27,0.00,,,0.01,871,WeatherCatV1.15B25,2013-05-29 21:09:00,
2013-05-29 15:14:00,56.6,22.1,29.84,WSW,254,18.0,22.0,26,0.00,,,0.01,922,WeatherCatV1.15B25,2013-05-29 21:14:00,
2013-05-29 15:19:00,56.5,22.0,29.84,WSW,244,6.0,18.0,26,0.00,,,0.01,899,WeatherCatV1.15B25,2013-05-29 21:19:00,
2013-05-29 15:24:00,57.0,22.5,29.84,WNW,292,29.0,31.0,26,0.00,,,0.01,984,WeatherCatV1.15B25,2013-05-29 21:24:00,
2013-05-29 15:29:00,57.3,21.8,29.84,WNW,299,18.0,31.0,25,0.00,,,0.01,980,WeatherCatV1.15B25,2013-05-29 21:29:00,
2013-05-29 15:34:00,56.7,22.2,29.84,SW,234,25.0,34.0,26,0.00,,,0.01,1012,WeatherCatV1.15B25,2013-05-29 21:34:00,
2013-05-29 15:39:00,55.9,24.1,29.84,WSW,239,14.0,31.0,29,0.00,,,0.01,1026,WeatherCatV1.15B25,2013-05-29 21:39:00,
2013-05-29 15:44:00,53.9,24.0,29.87,West,260,22.0,37.0,31,0.00,,,0.01,392,WeatherCatV1.15B25,2013-05-29 21:44:00,
2013-05-29 15:49:00,51.6,26.2,29.87,West,261,16.0,28.0,37,0.00,,,0.01,927,WeatherCatV1.15B25,2013-05-29 21:49:00,
2013-05-29 15:54:00,51.3,25.9,29.87,West,264,17.0,19.0,37,0.00,,,0.01,869,WeatherCatV1.15B25,2013-05-29 21:54:00,
2013-05-29 15:59:00,52.2,24.7,29.85,WSW,247,0.0,7.0,34,0.00,,,0.01,871,WeatherCatV1.15B25,2013-05-29 21:59:00,
2013-05-29 16:04:00,53.6,25.2,29.85,WSW,246,10.0,18.0,33,0.00,,,0.01,866,WeatherCatV1.15B25,2013-05-29 22:04:00,
2013-05-29 16:09:00,54.5,23.7,29.85,WSW,256,6.0,12.0,30,0.00,,,0.01,815,WeatherCatV1.15B25,2013-05-29 22:09:00,
2013-05-29 16:14:00,55.4,22.0,29.84,NNW,333,6.0,29.0,27,0.00,,,0.01,820,WeatherCatV1.15B25,2013-05-29 22:14:00,
2013-05-29 16:19:00,56.2,22.7,29.84,WSW,257,11.0,15.0,27,0.00,,,0.01,827,WeatherCatV1.15B25,2013-05-29 22:19:00,
2013-05-29 16:24:00,56.7,21.3,29.84,SW,234,13.0,16.0,25,0.00,,,0.01,735,WeatherCatV1.15B25,2013-05-29 22:24:00,
2013-05-29 16:29:00,56.5,21.1,29.83,NW,323,10.0,13.0,25,0.00,,,0.01,565,WeatherCatV1.15B25,2013-05-29 22:29:00,
2013-05-29 16:34:00,57.3,22.7,29.83,WNW,296,8.0,16.0,26,0.00,,,0.01,818,WeatherCatV1.15B25,2013-05-29 22:34:00,
2013-05-29 16:39:00,57.6,19.0,29.83,WNW,284,6.0,19.0,22,0.00,,,0.01,818,WeatherCatV1.15B25,2013-05-29 22:39:00,
2013-05-29 16:44:00,58.4,19.7,29.83,North,359,10.0,13.0,22,0.00,,,0.01,799,WeatherCatV1.15B25,2013-05-29 22:44:00,
2013-05-29 16:49:00,58.6,18.8,29.83,North,6,8.0,11.0,21,0.00,,,0.01,757,WeatherCatV1.15B25,2013-05-29 22:49:00,
2013-05-29 16:54:00,58.9,20.1,29.83,NNW,335,18.0,24.0,22,0.00,,,0.01,709,WeatherCatV1.15B25,2013-05-29 22:54:00,
2013-05-29 16:59:00,57.6,20.1,29.83,NW,320,8.0,26.0,23,0.00,,,0.01,683,WeatherCatV1.15B25,2013-05-29 22:59:00,
2013-05-29 17:04:00,57.2,21.7,29.83,NW,316,8.0,14.0,25,0.00,,,0.01,612,WeatherCatV1.15B25,2013-05-29 23:04:00,
2013-05-29 17:09:00,56.7,23.1,29.83,North,0,7.0,28.0,27,0.00,,,0.01,619,WeatherCatV1.15B25,2013-05-29 23:09:00,
2013-05-29 17:14:00,55.7,23.1,29.85,WNW,287,14.0,30.0,28,0.00,,,0.01,596,WeatherCatV1.15B25,2013-05-29 23:14:00,
2013-05-29 17:19:00,56.0,23.4,29.85,NW,316,11.0,21.0,28,0.00,,,0.01,579,WeatherCatV1.15B25,2013-05-29 23:19:00,
2013-05-29 17:24:00,55.6,23.9,29.85,NNW,328,19.0,33.0,29,0.00,,,0.01,547,WeatherCatV1.15B25,2013-05-29 23:24:00,
2013-05-29 17:29:00,53.6,23.7,29.85,North,354,11.0,27.0,31,0.00,,,0.01,524,WeatherCatV1.15B25,2013-05-29 23:29:00,
2013-05-29 17:34:00,53.5,23.6,29.85,WNW,296,8.0,19.0,31,0.00,,,0.01,484,WeatherCatV1.15B25,2013-05-29 23:34:00,
2013-05-29 17:39:00,53.5,25.1,29.85,SSW,192,6.0,11.0,33,0.00,,,0.01,491,WeatherCatV1.15B25,2013-05-29 23:39:00,
2013-05-29 17:44:00,54.2,22.6,29.83,NNW,333,11.0,14.0,29,0.00,,,0.01,405,WeatherCatV1.15B25,2013-05-29 23:44:00,
2013-05-29 17:49:00,54.5,22.1,29.83,NNW,333,17.0,20.0,28,0.00,,,0.01,410,WeatherCatV1.15B25,2013-05-29 23:49:00,
2013-05-29 17:54:00,54.5,22.9,29.83,SSW,203,10.0,17.0,29,0.00,,,0.01,449,WeatherCatV1.15B25,2013-05-29 23:54:00,
2013-05-29 17:59:00,54.4,21.1,29.83,WNW,289,11.0,20.0,27,0.00,,,0.01,435,WeatherCatV1.15B25,2013-05-29 23:59:00,
2013-05-29 18:04:00,54.4,20.2,29.83,NW,323,7.0,18.0,26,0.00,,,0.01,419,WeatherCatV1.15B25,2013-05-30 00:04:00,
2013-05-29 18:09:00,55.0,19.8,29.83,SSW,212,7.0,18.0,25,0.00,,,0.01,364,WeatherCatV1.15B25,2013-05-30 00:09:00,
2013-05-29 18:14:00,54.8,19.7,29.83,NNE,20,3.0,17.0,25,0.00,,,0.01,370,WeatherCatV1.15B25,2013-05-30 00:14:00,
2013-05-29 18:19:00,55.4,19.2,29.83,NW,316,9.0,19.0,24,0.00,,,0.01,364,WeatherCatV1.15B25,2013-05-30 00:19:00,
2013-05-29 18:24:00,55.6,19.4,29.83,NW,323,5.0,13.0,24,0.00,,,0.01,341,WeatherCatV1.15B25,2013-05-30 00:24:00,
2013-05-29 18:29:00,55.3,19.1,29.83,North,359,7.0,14.0,24,0.00,,,0.01,322,WeatherCatV1.15B25,2013-05-30 00:29:00,
2013-05-29 18:34:00,55.0,19.8,29.83,SW,222,9.0,10.0,25,0.00,,,0.01,303,WeatherCatV1.15B25,2013-05-30 00:34:00,
2013-05-29 18:39:00,54.7,19.6,29.83,North,354,13.0,18.0,25,0.00,,,0.01,283,WeatherCatV1.15B25,2013-05-30 00:39:00,
2013-05-29 18:44:00,54.5,20.3,29.84,WNW,287,6.0,12.0,26,0.00,,,0.01,266,WeatherCatV1.15B25,2013-05-30 00:44:00,
2013-05-29 18:49:00,54.5,20.3,29.84,NNW,332,21.0,24.0,26,0.00,,,0.01,243,WeatherCatV1.15B25,2013-05-30 00:49:00,
2013-05-29 18:54:00,54.2,20.1,29.84,NW,325,12.0,20.0,26,0.00,,,0.01,230,WeatherCatV1.15B25,2013-05-30 00:54:00,
2013-05-29 18:59:00,54.2,21.0,29.85,West,271,1.0,6.0,27,0.00,,,0.01,229,WeatherCatV1.15B25,2013-05-30 00:59:00,
2013-05-29 19:04:00,54.1,21.7,29.85,West,265,3.0,12.0,28,0.00,,,0.01,199,WeatherCatV1.15B25,2013-05-30 01:04:00,
2013-05-29 19:09:00,53.9,20.7,29.85,North,0,11.0,18.0,27,0.00,,,0.01,185,WeatherCatV1.15B25,2013-05-30 01:09:00,
2013-05-29 19:14:00,53.1,20.9,29.85,North,0,6.0,10.0,28,0.00,,,0.01,65,WeatherCatV1.15B25,2013-05-30 01:14:00,
2013-05-29 19:19:00,52.2,20.9,29.85,NNW,328,7.0,14.0,29,0.00,,,0.01,63,WeatherCatV1.15B25,2013-05-30 01:19:00,
2013-05-29 19:24:00,51.7,22.1,29.85,NNW,347,7.0,13.0,31,0.00,,,0.01,65,WeatherCatV1.15B25,2013-05-30 01:24:00,
2013-05-29 19:29:00,51.3,22.5,29.85,NNW,340,10.0,17.0,32,0.00,,,0.01,49,WeatherCatV1.15B25,2013-05-30 01:29:00,
2013-05-29 19:34:00,51.0,22.2,29.85,East,82,4.0,12.0,32,0.00,,,0.01,46,WeatherCatV1.15B25,2013-05-30 01:34:00,
2013-05-29 19:39:00,50.7,21.9,29.85,North,353,17.0,19.0,32,0.00,,,0.01,39,WeatherCatV1.15B25,2013-05-30 01:39:00,
2013-05-29 19:44:00,50.5,22.5,29.86,NNW,329,6.0,17.0,33,0.00,,,0.01,35,WeatherCatV1.15B25,2013-05-30 01:44:00,
2013-05-29 19:49:00,50.4,22.4,29.86,NNW,344,4.0,8.0,33,0.00,,,0.01,37,WeatherCatV1.15B25,2013-05-30 01:49:00,
2013-05-29 19:54:00,50.1,22.1,29.86,North,359,13.0,27.0,33,0.00,,,0.01,35,WeatherCatV1.15B25,2013-05-30 01:54:00,
2013-05-29 19:59:00,49.9,22.7,29.86,WNW,295,10.0,25.0,34,0.00,,,0.01,33,WeatherCatV1.15B25,2013-05-30 01:59:00,
2013-05-29 20:04:00,49.6,22.4,29.86,NNW,347,11.0,22.0,34,0.00,,,0.01,14,WeatherCatV1.15B25,2013-05-30 02:04:00,
2013-05-29 20:09:00,49.4,22.2,29.86,NW,323,12.0,14.0,34,0.00,,,0.01,11,WeatherCatV1.15B25,2013-05-30 02:09:00,
2013-05-29 20:14:00,49.2,22.7,29.86,North,359,3.0,13.0,35,0.00,,,0.01,9,WeatherCatV1.15B25,2013-05-30 02:14:00,
2013-05-29 20:19:00,48.9,23.1,29.86,WNW,289,4.0,11.0,36,0.00,,,0.01,7,WeatherCatV1.15B25,2013-05-30 02:19:00,
2013-05-29 20:24:00,48.8,23.0,29.86,NW,315,0.0,0.0,36,0.00,,,0.01,5,WeatherCatV1.15B25,2013-05-30 02:24:00,
2013-05-29 20:29:00,48.5,23.4,29.86,NW,325,2.0,2.0,37,0.00,,,0.01,0,WeatherCatV1.15B25,2013-05-30 02:29:00,
2013-05-29 20:34:00,48.2,23.8,29.86,WSW,258,3.0,3.0,38,0.00,,,0.01,0,WeatherCatV1.15B25,2013-05-30 02:34:00,
2013-05-29 20:39:00,48.0,24.8,29.86,WNW,288,13.0,20.0,40,0.00,,,0.01,0,WeatherCatV1.15B25,2013-05-30 02:39:00,
2013-05-29 20:44:00,47.9,25.3,29.87,WNW,288,6.0,17.0,41,0.00,,,0.01,0,WeatherCatV1.15B25,2013-05-30 02:44:00,
2013-05-29 20:49:00,47.6,25.7,29.87,WSW,247,5.0,14.0,42,0.00,,,0.01,0,WeatherCatV1.15B25,2013-05-30 02:49:00,
2013-05-29 20:54:00,47.4,25.5,29.87,North,0,4.0,24.0,42,0.00,,,0.01,0,WeatherCatV1.15B25,2013-05-30 02:54:00,
2013-05-29 20:59:00,47.3,25.4,29.88,WSW,237,6.0,18.0,42,0.00,,,0.01,0,WeatherCatV1.15B25,2013-05-30 02:59:00,
2013-05-29 21:04:00,47.0,25.1,29.88,West,271,13.0,18.0,42,0.00,,,0.01,0,WeatherCatV1.15B25,2013-05-30 03:04:00,
2013-05-29 21:09:00,46.8,24.4,29.88,WNW,292,6.0,8.0,41,0.00,,,0.01,0,WeatherCatV1.15B25,2013-05-30 03:09:00,
2013-05-29 21:14:00,46.7,23.1,29.88,NW,316,5.0,16.0,39,0.00,,,0.01,0,WeatherCatV1.15B25,2013-05-30 03:14:00,
2013-05-29 21:19:00,46.5,22.3,29.88,South,188,6.0,12.0,38,0.00,,,0.01,0,WeatherCatV1.15B25,2013-05-30 03:19:00,
2013-05-29 21:24:00,46.5,20.3,29.88,WNW,282,4.0,13.0,35,0.00,,,0.01,0,WeatherCatV1.15B25,2013-05-30 03:24:00,
2013-05-29 21:29:00,46.5,19.7,29.88,SW,232,8.0,11.0,34,0.00,,,0.01,0,WeatherCatV1.15B25,2013-05-30 03:29:00,
2013-05-29 21:34:00,46.5,18.3,29.88,WNW,285,13.0,18.0,32,0.00,,,0.01,0,WeatherCatV1.15B25,2013-05-30 03:34:00,
2013-05-29 21:39:00,46.8,17.8,29.88,WSW,241,5.0,14.0,31,0.00,,,0.01,0,WeatherCatV1.15B25,2013-05-30 03:39:00,
2013-05-29 21:44:00,46.8,18.5,29.90,NNW,344,11.0,16.0,32,0.00,,,0.01,0,WeatherCatV1.15B25,2013-05-30 03:44:00,
2013-05-29 21:49:00,46.8,18.5,29.90,WNW,299,0.0,5.0,32,0.00,,,0.01,0,WeatherCatV1.15B25,2013-05-30 03:49:00,
2013-05-29 21:54:00,46.7,19.1,29.90,WSW,243,0.0,6.0,33,0.00,,,0.01,0,WeatherCatV1.15B25,2013-05-30 03:54:00,
2013-05-29 21:59:00,46.4,19.6,29.91,WNW,298,5.0,6.0,34,0.00,,,0.01,0,WeatherCatV1.15B25,2013-05-30 03:59:00,
2013-05-29 22:01:00,46.4,20.3,29.91,NW,306,6.0,8.0,35,0.00,,,0.01,0,WeatherCatV1.15B25,2013-05-30 04:01:00,
2013-05-29 22:05:00,46.2,20.1,29.91,NW,318,4.0,14.0,35,0.00,,,0.00,0,WeatherCatV1.15B25,2013-05-30 04:05:00,
2013-05-29 22:06:00,46.2,19.4,29.91,North,350,6.0,14.0,34,0.00,,,0.01,0,WeatherCatV1.15B25,2013-05-30 04:06:00,
2013-05-29 22:10:00,46.2,20.1,29.91,NW,318,4.0,14.0,35,0.00,,,0.00,0,WeatherCatV1.15B25,2013-05-30 04:10:00,
2013-05-29 22:15:00,46.0,19.9,29.91,NNW,338,5.0,14.0,35,0.00,,,0.00,0,WeatherCatV1.15B25,2013-05-30 04:15:00,
2013-05-29 22:20:00,46.0,19.9,29.91,NNW,338,5.0,14.0,35,0.00,,,0.00,0,WeatherCatV1.15B25,2013-05-30 04:20:00,
2013-05-29 22:25:00,46.0,19.9,29.91,NNW,338,5.0,14.0,35,0.00,,,0.00,0,WeatherCatV1.15B25,2013-05-30 04:25:00,
2013-05-29 22:30:00,46.0,19.9,29.91,NNW,338,5.0,14.0,35,0.00,,,0.00,0,WeatherCatV1.15B25,2013-05-30 04:30:00,
2013-05-29 22:35:00,45.8,19.7,29.92,NW,315,3.0,14.0,35,0.00,,,0.00,0,WeatherCatV1.15B25,2013-05-30 04:35:00,
2013-05-29 22:40:00,45.8,19.7,29.92,NW,315,3.0,14.0,35,0.00,,,0.00,0,WeatherCatV1.15B25,2013-05-30 04:40:00,
2013-05-29 22:45:00,45.8,19.7,29.92,NW,315,3.0,14.0,35,0.00,,,0.00,0,WeatherCatV1.15B25,2013-05-30 04:45:00,
2013-05-29 22:50:00,45.8,19.7,29.92,NW,315,6.0,18.0,35,0.00,,,0.00,0,WeatherCatV1.15B25,2013-05-30 04:50:00,
2013-05-29 22:55:00,45.8,19.7,29.92,NW,315,6.0,18.0,35,0.00,,,0.00,0,WeatherCatV1.15B25,2013-05-30 04:55:00,
2013-05-29 23:00:00,45.8,19.7,29.92,NW,315,6.0,18.0,35,0.00,,,0.00,0,WeatherCatV1.15B25,2013-05-30 05:00:00,
2013-05-29 23:05:00,45.4,19.4,29.92,NW,315,4.0,20.0,35,0.00,,,0.00,0,WeatherCatV1.15B25,2013-05-30 05:05:00,
2013-05-29 23:10:00,45.4,19.4,29.92,NW,315,4.0,20.0,35,0.00,,,0.00,0,WeatherCatV1.15B25,2013-05-30 05:10:00,
2013-05-29 23:15:00,45.4,19.4,29.92,NW,315,4.0,20.0,35,0.00,,,0.00,0,WeatherCatV1.15B25,2013-05-30 05:15:00,
2013-05-29 23:20:00,44.8,20.1,29.92,West,270,2.0,10.0,37,0.00,,,0.00,0,WeatherCatV1.15B25,2013-05-30 05:20:00,
2013-05-29 23:25:00,44.8,20.1,29.92,West,270,2.0,10.0,37,0.00,,,0.00,0,WeatherCatV1.15B25,2013-05-30 05:25:00,
2013-05-29 23:30:00,44.8,20.1,29.92,West,270,2.0,10.0,37,0.00,,,0.00,0,WeatherCatV1.15B25,2013-05-30 05:30:00,
2013-05-29 23:35:00,44.3,20.3,29.92,WSW,248,1.0,6.0,38,0.00,,,0.00,0,WeatherCatV1.15B25,2013-05-30 05:35:00,
2013-05-29 23:40:00,44.3,20.3,29.92,WSW,248,1.0,6.0,38,0.00,,,0.00,0,WeatherCatV1.15B25,2013-05-30 05:40:00,
2013-05-29 23:45:00,44.3,20.3,29.92,WSW,248,1.0,6.0,38,0.00,,,0.00,0,WeatherCatV1.15B25,2013-05-30 05:45:00,
2013-05-29 23:50:00,44.3,20.9,29.92,SW,225,3.0,10.0,39,0.00,,,0.00,0,WeatherCatV1.15B25,2013-05-30 05:50:00,
2013-05-29 23:55:00,44.3,20.9,29.92,SW,225,3.0,10.0,39,0.00,,,0.00,0,WeatherCatV1.15B25,2013-05-30 05:55:00,